Tiempo atmosférico en la estación meteorológica de Llanes, Asturias (10 m.)



Fecha
DESCASC
Temp. máxima en grados centígrados (hora)
DESCASC
Temp. mínima en grados centígrados (hora)
DESCASC
Temp. media en grados centígrados
DESCASC
Racha de viento máxima en m/sg (hora)
DESCASC
Velocidad máxima media en intervalos de 10 minutos(hora)
DESCASC
Precipitaciones diarias en mm
DESCASC
Precipitaciones de 00:00 a 06:00 en mm
DESCASC
Precipitaciones de 06:00 a 12:00 en mm
DESCASC
Precipitaciones de 12:00 a 18:00 en mm
DESCASC
Precipitaciones de 18:00 a 24:00 en mm
DESCASC
17-09-2020 25.9 (14:20) 20.2 (08:50) 23.1 3.89 (06:00) 2.5 (18:10) 1.8 1.8 0 0 0
16-09-2020 25.4 (13:40) 19.7 (01:10) 22.6 4.17 (15:00) 3.06 (13:30) 0 0 0 0 0
15-09-2020 25 (16:40) 17.9 (08:20) 21.4 5.56 (03:10) 3.61 (04:30) 3.4 3.4 0 0 0
14-09-2020 26.1 (14:00) 18.5 (00:00) 22.3 10 (23:20) 6.67 (23:20) 6 0 0 0 6
13-09-2020 25.6 (16:40) 16.2 (00:00) 20.9 5.83 (19:10) 4.17 (18:30) 0 0 0 0 0
12-09-2020 25 (13:10) 18.6 (00:00) 21.8 8.89 (18:30) 6.39 (18:30) 0 0 0 0 0
11-09-2020 26.1 (15:10) 16.2 (00:00) 21.2 6.39 (19:20) 4.72 (19:20) 0 0 0 0 0
10-09-2020 24.7 (18:40) 15.6 (00:00) 20.2 4.44 (02:30) 3.06 (02:20) 0 0 0 0 0
09-09-2020 24.6 (18:50) 14.3 (00:00) 19.5 4.17 (15:40) 3.61 (15:50) 0 0 0 0 0
08-09-2020 23 (15:40) 16.4 (00:00) 19.7 11.11 (15:00) 8.61 (12:50) 0 0 0 0 0
07-09-2020 24.6 (15:10) 15.8 (07:40) 20.2 8.06 (20:00) 5.56 (19:50) 0.8 0.8 0 0 0
06-09-2020 22.2 (18:00) 16 (00:00) 19.1 7.5 (01:40) 5 (01:40) 8.6 8.4 0.2 0 0
05-09-2020 22.6 (15:20) 17.9 (00:00) 20.3 8.33 (23:10) 6.11 (22:50) 10.4 0 4.4 0 6
04-09-2020 26.6 (17:50) 16.6 (00:00) 21.6 6.39 (21:50) 3.89 (23:59) 0 0 0 0 0
03-09-2020 26.7 (16:50) 14.8 (00:00) 20.8 5.28 (17:40) 4.17 (17:40) 0 0 0 0 0
02-09-2020 25.5 (15:50) 16.5 (00:00) 21 7.78 (19:40) 6.39 (19:40) 0 0 0 0 0
01-09-2020 23.7 (13:00) 15.7 (00:00) 19.7 5.56 (13:40) 3.89 (11:50) 0 0 0 0 0
31-08-2020 24.9 (16:10) 12.2 (00:00) 18.5 7.22 (19:50) 5 (19:50) 0 0 0 0 0
30-08-2020 21.6 (19:10) 13.9 (00:00) 17.8 8.06 (11:30) 4.17 (01:30) 6.4 3.8 2 0.6 0
29-08-2020 20 (14:10) 14.2 (00:00) 17.1 -- (--) -- (--) 32.2 1.6 14.8 2.6 13.2
28-08-2020 23.2 (12:40) 17.8 (00:00) 20.5 15.56 (14:30) 9.17 (16:00) 2.6 2.4 0.2 0 0
27-08-2020 25 (15:40) 19.8 (00:00) 22.4 6.39 (13:10) 5.28 (13:20) 0 0 0 0 0
26-08-2020 27.7 (12:50) 21.3 (00:00) 24.5 6.39 (15:00) 5 (14:40) 0 0 0 0 0
25-08-2020 26.9 (17:10) 17.4 (00:00) 22.1 -- (--) -- (--) 0 0 0 0 0
24-08-2020 25.8 (15:00) 17.9 (00:00) 21.8 10.83 (12:00) 7.5 (12:00) 0 0 0 0 0
23-08-2020 24.4 (16:10) 16.4 (00:00) 20.4 6.11 (19:20) 3.61 (19:30) 0 0 0 0 0
22-08-2020 23.6 (14:10) 18.8 (00:00) 21.2 5 (01:50) 3.33 (01:50) 1.6 1.2 0.4 0 0
21-08-2020 26.6 (14:30) 19 (00:00) 22.8 6.39 (08:20) 4.17 (17:20) 0.2 0 0 0 0.2

Gráficas

Temp. máximas Temp. mínimas Temp. medias Precipitaciones Rachas de viento máximas Velocidades máximas media en intervalos de 10 minutos

Datos horarios

Fecha y hora oficial Temperatura (ºC) Velocidad del viento (km/h) Dirección del viento Racha (km/h) Dirección de racha Precipitación (mm) Presión (hPa) Tendencia (hPa) Humedad (%)
2020-09-19 23:00:00 19.4 7 Oeste 21 Sudoeste 0 1014.1 1.5 71
2020-09-19 22:00:00 19.2 7 Sudoeste 24 Oeste 0 1013.8 2.1 71
2020-09-19 21:00:00 19.6 9 Oeste 18 Oeste 0 1013.3 2.7 74
2020-09-19 20:00:00 20.3 11 Oeste 17 Oeste 0 1012.6 2.4 73
2020-09-19 19:00:00 21.1 5 Sudoeste 23 Oeste 0 1011.7 1.2 73
2020-09-19 18:00:00 22.4 12 Oeste 28 Noroeste 0 1010.6 -0.1 68
2020-09-19 17:00:00 22.9 15 Noroeste 24 Noroeste 0 1010.2 -1.1 61
2020-09-19 16:00:00 21.1 15 Noroeste 24 Oeste 0 1010.5 -- 65
2020-09-19 15:00:00 20.2 9 Oeste 23 Sudoeste 0.2 1010.7 -- 79
2020-09-19 14:00:00 18.3 7 Sudoeste 19 Norte 21.8 1011.3 -- 87
2020-09-19 13:00:00 17 17 Noroeste 42 Noroeste 11.2 1011.8 -- 85
2020-09-19 12:00:00 19 5 Oeste 13 Noroeste 0 1010.6 -- 83
2020-09-19 11:00:00 18.6 2 Sur 7 Sudeste 0 1009.4 -- 84
2020-09-19 10:00:00 18.3 4 Sudeste 14 Noroeste 0 1008.9 -- 84
2020-09-19 09:00:00 18.1 9 Noroeste 16 Noroeste 0 1008.2 -- 86
2020-09-19 08:00:00 18.1 5 Sudoeste 10 Sur 1 1007.8 -- 86
2020-09-19 07:00:00 18.5 0 Calma 8 Sudoeste 0.6 1008.5 -- 84
2020-09-19 06:00:00 18.7 5 Sur 12 Sudoeste 0 1008.4 -- 83
2020-09-19 05:00:00 18.9 4 Sur 7 Sur 0 1007.7 -- 82
2020-09-19 04:00:00 19 4 Nordeste 13 Oeste 0.2 1007.3 -- 81
2020-09-19 03:00:00 19.1 6 Sur 19 Este 0 1007.6 -- 80
2020-09-19 02:00:00 18.9 10 Norte 19 Norte 0 1007.6 -- 81
2020-09-19 01:00:00 19.2 3 Sur 11 Sudoeste 0 1008.6 -- 78
2020-09-19 00:00:00 18.9 9 Sudoeste 14 Sudoeste 0 1008.8 -- 75
2020-09-18 23:00:00 18.8 3 Oeste 13 Sudoeste 0 1009.1 -- 74
2020-09-18 22:00:00 19.4 7 Sudoeste 12 Sudoeste 0 1009.1 -- 75
2020-09-18 21:00:00 20.5 0 Calma 8 Sur 0 1008.7 -- 71
2020-09-18 20:00:00 21.3 3 Sudeste 8 Este 0 1008.4 -- 70
2020-09-18 19:00:00 23.4 8 Este 11 Este 0 1008.7 -- 64
2020-09-18 18:00:00 24 12 Nordeste 13 Nordeste 0 1008.4 -- 66
2020-09-18 17:00:00 23.7 7 Este 17 Este 0 1008.5 -- 69
2020-09-18 16:00:00 24.3 11 Este 15 Este 0 1008.5 -- 68
2020-09-18 15:00:00 24.3 5 Este 9 Este 0 1008.4 -- 71
2020-09-18 14:00:00 23.7 3 Nordeste 8 Nordeste 0 1008.6 -- 72
2020-09-18 13:00:00 23.2 6 Este 14 Este 0 1008.7 -- 76
2020-09-18 12:00:00 20.8 6 Este 11 Nordeste 0 1008.3 -- 82
2020-09-18 11:00:00 20.2 3 Nordeste 7 Nordeste 0.2 1007.6 -- 83
2020-09-18 10:00:00 19.2 3 Noroeste 17 Oeste 1.2 1007.4 -- 87
2020-09-18 09:00:00 19 8 Oeste 20 Oeste 0.4 1007.4 -- 86
2020-09-18 08:00:00 18.9 3 Sudoeste 14 Sudeste 0 1007.1 -- 85
2020-09-18 07:00:00 18.6 2 Oeste 8 Sudeste 0 1007.3 -- 86
2020-09-18 06:00:00 18.5 2 Sudeste 10 Noroeste 0 1006.4 -- 86
2020-09-18 05:00:00 18.5 4 Este 19 Noroeste 0.2 1007 -- 85
2020-09-18 04:00:00 19 8 Noroeste 28 Oeste 0.2 1006.9 -- 83
2020-09-18 03:00:00 19.6 14 Oeste 27 Oeste 0.6 1008.3 -- 82
2020-09-18 02:00:00 20.1 18 Oeste 42 Oeste 0 1007.4 -- 80
2020-09-18 01:00:00 20.5 6 Norte 13 Sudoeste 0 1005.8 -- 84
2020-09-18 00:00:00 20.8 4 Sudoeste 12 Oeste 0 1005.9 -- 84
2020-09-17 23:00:00 21.1 3 Sudeste 9 Norte 0 1006.6 -- 83
2020-09-17 22:00:00 21.5 3 Oeste 10 Noroeste 0 1007.1 -- 81
2020-09-17 21:00:00 22 3 Nordeste 10 Sudoeste 0 1006.8 -- 80
2020-09-17 20:00:00 22 4 Sudeste 8 Nordeste 0 1006.9 -- 77
2020-09-17 19:00:00 24.3 4 Oeste 12 Noroeste 0 1007.6 -- 69
2020-09-17 18:00:00 24.9 7 Noroeste 12 Sudoeste 0 1007.8 -- 67
2020-09-17 17:00:00 24.1 4 Norte 12 Norte 0 1008.3 -- 70
2020-09-17 16:00:00 25.5 6 Este 11 Este 0 1008.7 -- 66
2020-09-17 15:00:00 23.7 3 Noroeste 14 Este 0 1009.2 -- 71
2020-09-17 14:00:00 25.3 3 Norte 8 Noroeste 0 1009.6 -- 71
2020-09-17 13:00:00 22.9 6 Noroeste 10 Noroeste 0 1010.2 -- 83
2020-09-17 12:00:00 21.9 3 Noroeste 5 Noroeste 0 1010.3 -- 85
2020-09-17 11:00:00 20.9 3 Nordeste 5 Nordeste 0 1011 -- 88
2020-09-17 10:00:00 20.9 4 Sur 8 Sudoeste 0 1011.6 -- 88
2020-09-17 09:00:00 20.4 3 Oeste 11 Sudoeste 0 1011.5 -- 89
2020-09-17 08:00:00 20.4 3 Oeste 6 Sudoeste 0 1012 -- 89
2020-09-17 07:00:00 20.6 4 Oeste 11 Sur 0 1012 -- 88
2020-09-17 06:00:00 20.6 7 Sur 14 Sur 0.4 1012.7 -- 88
2020-09-17 05:00:00 20.7 5 Este 9 Este 1.4 1013.4 -- 88
2020-09-17 04:00:00 20.8 4 Este 8 Sudeste 0 1013.6 -- 88
2020-09-17 03:00:00 20.6 3 Este 6 Sudeste 0 1014.6 -- 87
2020-09-17 02:00:00 20.4 3 Sudeste 10 Este 0 1014.9 -- 87
2020-09-17 01:00:00 20.6 0 Calma 8 Nordeste 0 1015.8 -- 85
2020-09-17 00:00:00 21.6 5 Este 14 Este 0 1016 -- 84
2020-09-16 23:00:00 21.3 5 Este 10 Este 0 1016.1 -- 85
2020-09-16 22:00:00 21.4 5 Este 6 Este 0 1016 -- 84
2020-09-16 21:00:00 21.7 3 Este 5 Este 0 1015.7 -- 83
2020-09-16 20:00:00 22.2 3 Este 10 Este 0 1015.8 -- 81
2020-09-16 19:00:00 22.6 7 Este 10 Este 0 1015.5 -- 79
2020-09-16 18:00:00 22.9 8 Este 10 Este 0 1015.6 -- 78
2020-09-16 17:00:00 23.8 8 Este 12 Este 0 1015.9 -- 75
2020-09-16 16:00:00 23.6 8 Este 13 Este 0 1016.5 -- 74
2020-09-16 15:00:00 24 10 Este 15 Este 0 1017 -- 71
2020-09-16 14:00:00 25.3 11 Este 14 Este 0 1017.3 -- 68
2020-09-16 13:00:00 25 9 Este 12 Este 0 1017.5 -- 70
2020-09-16 12:00:00 23.4 5 Norte 10 Nordeste 0 1017.8 -- 72
2020-09-16 11:00:00 22.7 6 Este 10 Nordeste 0 1018 -- 78
2020-09-16 10:00:00 21.1 4 Este 7 Este 0 1017.9 -- 83
2020-09-16 09:00:00 20.5 0 Calma 5 Nordeste 0 1017.8 -- 85
2020-09-16 08:00:00 20.3 3 Nordeste 6 Sudoeste 0 1017.5 -- 85
2020-09-16 07:00:00 20.3 2 Sudoeste 6 Sur 0 1017.4 -- 85
2020-09-16 06:00:00 20.2 2 Sudoeste 5 Sudoeste 0 1017.6 -- 85
2020-09-16 05:00:00 20.3 2 Sudoeste 4 Este 0 1017.8 -- 84
2020-09-16 04:00:00 20.2 3 Este 5 Nordeste 0 1018.1 -- 84
2020-09-16 03:00:00 20.3 3 Noroeste 6 Sudoeste 0 1018.2 -- 83
2020-09-16 02:00:00 20.1 6 Sudoeste 12 Sudoeste 0 1018.3 -- 84
2020-09-16 01:00:00 19.8 8 Sudoeste 10 Sudoeste 0 1018.6 -- 84
2020-09-16 00:00:00 20.2 3 Sudoeste 8 Sudoeste 0 1018.5 -- 83
2020-09-15 23:00:00 20.7 4 Sur 8 Sudeste 0 1018.4 -- 82
2020-09-15 22:00:00 20.8 5 Sudeste 8 Sudeste 0 1018.2 -- 81
2020-09-15 21:00:00 21.6 4 Este 9 Este 0 1017.9 -- 79
2020-09-15 20:00:00 22.3 7 Este 9 Este 0 1018 -- 77
2020-09-15 19:00:00 23.7 5 Este 8 Este 0 1018 -- 74
2020-09-15 18:00:00 24.3 3 Nordeste 5 Nordeste 0 1018.1 -- 72
2020-09-15 17:00:00 24.4 2 Norte 6 Noroeste 0 1018.2 -- 71
2020-09-15 16:00:00 24.2 4 Noroeste 9 Noroeste 0 1018.5 -- 70
2020-09-15 15:00:00 24.4 5 Noroeste 11 Noroeste 0 1018.5 -- 70
2020-09-15 14:00:00 24.2 5 Noroeste 8 Noroeste 0 1018.3 -- 67
2020-09-15 13:00:00 23.9 4 Norte 9 Norte 0 1018.5 -- 69
2020-09-15 12:00:00 23.3 5 Noroeste 8 Norte 0 1018.6 -- 70
2020-09-15 11:00:00 22.8 3 Noroeste 7 Sur 0 1018.8 -- 73
2020-09-15 10:00:00 20.2 3 Sur 10 Sudoeste 0 1018.4 -- 84
2020-09-15 09:00:00 18.6 7 Sudoeste 10 Sudoeste 0 1018.3 -- 85
2020-09-15 08:00:00 18 6 Sudoeste 11 Sudoeste 0 1017.8 -- 86
2020-09-15 07:00:00 18.3 7 Sudoeste 14 Sudoeste 0 1017.3 -- 86
2020-09-15 06:00:00 18.8 5 Sudoeste 17 Oeste 0 1016.7 -- 86
2020-09-15 05:00:00 19.3 4 Sur 18 Este 0.6 1017 -- 85
2020-09-15 04:00:00 19.3 4 Sur 20 Sudoeste 2.6 1018 -- 85
2020-09-15 03:00:00 19.2 10 Sudoeste 18 Sudoeste 0 1019.2 -- 84
2020-09-15 02:00:00 19.3 6 Sudoeste 15 Sudoeste 0.2 1018.3 -- 84
2020-09-15 01:00:00 19.3 5 Sudoeste 15 Sudoeste 0 1018.2 -- 84
2020-09-15 00:00:00 19.7 6 Oeste 36 Este 0 1018.4 -- 83
2020-09-14 23:00:00 19.7 15 Este 32 Este 6 1018.2 -- 81
2020-09-14 22:00:00 21.2 5 Sudoeste 27 Oeste 0 1017.8 -- 71
2020-09-14 21:00:00 21.2 8 Sudoeste 12 Sudoeste 0 1017.4 -- 68
2020-09-14 20:00:00 22.5 3 Oeste 14 Este 0 1016.7 -- 60
2020-09-14 19:00:00 23.1 10 Este 13 Este 0 1016.2 -- 59
2020-09-14 18:00:00 23.3 7 Este 9 Este 0 1016.4 -- 61
2020-09-14 17:00:00 24.2 0 Calma 7 Oeste 0 1017.1 -- 61
2020-09-14 16:00:00 23.1 5 Sur 15 Este 0 1017.4 -- 65
2020-09-14 15:00:00 24.1 6 Noroeste 16 Noroeste 0 1017.8 -- 57
2020-09-14 14:00:00 26.1 10 Noroeste 15 Noroeste 0 1017.5 -- 48
2020-09-14 13:00:00 25 5 Noroeste 9 Noroeste 0 1017.4 -- 50
2020-09-14 12:00:00 24.9 3 Norte 6 Noroeste 0 1017.1 -- 50
2020-09-14 11:00:00 23.9 2 Nordeste 7 Este 0 1016.6 -- 57
2020-09-14 10:00:00 21.6 4 Este 5 Este 0 1016.3 -- 74
2020-09-14 09:00:00 19.3 3 Sudeste 8 Sur 0 1015.4 -- 76
2020-09-14 08:00:00 18.7 4 Sudeste 9 Oeste 0 1014.7 -- 77
2020-09-14 07:00:00 19.2 6 Oeste 13 Oeste 0 1014.3 -- 74
2020-09-14 06:00:00 19.7 3 Noroeste 8 Sur 0 1014.2 -- 70
2020-09-14 05:00:00 19.6 8 Sudoeste 12 Noroeste 0 1013.9 -- 69
2020-09-14 04:00:00 19.4 2 Noroeste 13 Sudoeste 0 1013.8 -- 71
2020-09-14 03:00:00 19.4 9 Sudoeste 14 Sudoeste 0 1014.2 -- 75
2020-09-14 02:00:00 18.8 4 Sudoeste 10 Sudoeste 0 1014.5 -- 77
2020-09-14 01:00:00 19 3 Sudoeste 10 Sudoeste 0 1015 -- 80
2020-09-14 00:00:00 19.2 0 Calma 7 Sudoeste 0 1015.3 -- 80
2020-09-13 23:00:00 19.9 8 Sudoeste 10 Sudoeste 0 1015.7 -- 81
2020-09-13 22:00:00 20.5 0 Calma 6 Sudoeste 0 1015.9 -- 82
2020-09-13 21:00:00 21 5 Este 12 Este 0 1015.5 -- 80
2020-09-13 20:00:00 21.7 12 Este 21 Este 0 1015.4 -- 78
2020-09-13 19:00:00 23.7 13 Este 19 Este 0 1015.3 -- 70
2020-09-13 18:00:00 24.3 13 Este 18 Este 0 1015.6 -- 66
2020-09-13 17:00:00 25.1 14 Este 17 Este 0 1015.9 -- 62
2020-09-13 16:00:00 24.6 5 Nordeste 9 Este 0 1016.4 -- 62
2020-09-13 15:00:00 25.5 8 Este 9 Este 0 1016.8 -- 61
2020-09-13 14:00:00 23.4 5 Nordeste 8 Nordeste 0 1017.1 -- 72
2020-09-13 13:00:00 23.3 6 Este 8 Este 0 1017.5 -- 76
2020-09-13 12:00:00 21.6 3 Nordeste 5 Nordeste 0 1018 -- 79
2020-09-13 11:00:00 20.1 2 Nordeste 6 Norte 0 1018.1 -- 85
2020-09-13 10:00:00 18.7 2 Este 4 Este 0 1017.9 -- 89
2020-09-13 09:00:00 16.8 2 Oeste 8 Sudoeste 0 1017.7 -- 89
2020-09-13 08:00:00 16.8 3 Sur 9 Sudoeste 0 1017.5 -- 89
2020-09-13 07:00:00 17 7 Sudoeste 10 Sudoeste 0 1017.7 -- 89
2020-09-13 06:00:00 17.3 7 Sudoeste 9 Sudoeste 0 1017.7 -- 89
2020-09-13 05:00:00 17.4 6 Sudoeste 11 Sudoeste 0 1018.1 -- 88
2020-09-13 04:00:00 17.9 2 Sur 5 Sudoeste 0 1018.2 -- 88
2020-09-13 03:00:00 18.3 0 Calma 7 Sudoeste 0 1018.9 -- 87
2020-09-13 02:00:00 18.7 3 Sudoeste 9 Sur 0 1019.1 -- 87
2020-09-13 01:00:00 18.9 4 Sudoeste 9 Sur 0 1019.6 -- 86
2020-09-13 00:00:00 18.9 8 Sudoeste 12 Sudoeste 0 1019.7 -- 86
2020-09-12 23:00:00 19.3 3 Sudoeste 9 Sudoeste 0 1019.6 -- 84
2020-09-12 22:00:00 20.1 2 Sudoeste 8 Sudeste 0 1019.5 -- 82
2020-09-12 21:00:00 20.6 5 Sudeste 15 Este 0 1018.8 -- 80
2020-09-12 20:00:00 21.1 11 Este 23 Este 0 1018.8 -- 78
2020-09-12 19:00:00 22.3 17 Este 32 Este 0 1018.5 -- 73
2020-09-12 18:00:00 22.2 21 Este 27 Este 0 1018.8 -- 76
2020-09-12 17:00:00 22.3 16 Este 21 Este 0 1019 -- 77
2020-09-12 16:00:00 22.5 12 Este 18 Este 0 1019.2 -- 76
2020-09-12 15:00:00 23.3 12 Este 19 Este 0 1019.1 -- 71
2020-09-12 14:00:00 24.7 8 Este 17 Nordeste 0 1019.3 -- 69
2020-09-12 13:00:00 24.5 12 Este 21 Este 0 1019.2 -- 67
2020-09-12 12:00:00 22.5 10 Este 15 Este 0 1019.2 -- 77
2020-09-12 11:00:00 20.7 6 Este 10 Este 0 1018.7 -- 84
2020-09-12 10:00:00 20.2 0 Calma 8 Este 0 1018.2 -- 86
2020-09-12 09:00:00 19.5 3 Este 6 Este 0 1018 -- 87
2020-09-12 08:00:00 19.5 3 Este 6 Este 0 1017.2 -- 86
2020-09-12 07:00:00 19.5 3 Sudeste 7 Sudoeste 0 1016.9 -- 86
2020-09-12 06:00:00 19.6 4 Sudoeste 5 Sudoeste 0 1016.6 -- 85
2020-09-12 05:00:00 20.1 2 Sudoeste 7 Sudoeste 0 1016.8 -- 84
2020-09-12 04:00:00 20.3 4 Sur 6 Sudoeste 0 1016.6 -- 84
2020-09-12 03:00:00 20.2 3 Sudeste 7 Sur 0 1016.6 -- 84
2020-09-12 02:00:00 20.4 4 Sur 7 Sur 0 1016.5 -- 83
2020-09-12 01:00:00 20.3 3 Sudeste 7 Este 0 1016.2 -- 83
2020-09-12 00:00:00 20.5 2 Noroeste 5 Este 0 1016.1 -- 82
2020-09-11 23:00:00 20.7 4 Este 13 Este 0 1016 -- 80
2020-09-11 22:00:00 21.2 10 Este 18 Este 0 1015.7 -- 79
2020-09-11 21:00:00 21.6 9 Este 22 Este 0 1015.3 -- 78
2020-09-11 20:00:00 22 15 Este 23 Este 0 1015.1 -- 75
2020-09-11 19:00:00 23.1 16 Este 22 Este 0 1015.3 -- 71
2020-09-11 18:00:00 23.9 10 Este 19 Este 0 1015.3 -- 69
2020-09-11 17:00:00 24.8 12 Este 18 Este 0 1015.4 -- 67
2020-09-11 16:00:00 25 10 Este 13 Este 0 1015.7 -- 66
2020-09-11 15:00:00 25.8 7 Este 11 Este 0 1015.7 -- 62
2020-09-11 14:00:00 23.5 5 Nordeste 9 Nordeste 0 1015.6 -- 64
2020-09-11 13:00:00 24.4 7 Nordeste 10 Nordeste 0 1015.6 -- 60
2020-09-11 12:00:00 22.6 3 Este 6 Norte 0 1015.7 -- 65
2020-09-11 11:00:00 20.9 4 Noroeste 7 Norte 0 1015.8 -- 73
2020-09-11 10:00:00 18.7 3 Sudoeste 10 Sudoeste 0 1015.6 -- 85
2020-09-11 09:00:00 16.9 8 Sudoeste 12 Sudoeste 0 1015.5 -- 87
2020-09-11 08:00:00 16.4 8 Sudoeste 12 Sudoeste 0 1015.3 -- 87
2020-09-11 07:00:00 16.9 7 Sudoeste 9 Sudoeste 0 1015.6 -- 87
2020-09-11 06:00:00 17.6 0 Calma 6 Sudoeste 0 1015.9 -- 86
2020-09-11 05:00:00 17.5 4 Sudoeste 7 Sur 0 1016.3 -- 86
2020-09-11 04:00:00 17.4 2 Sur 6 Sudoeste 0 1016.7 -- 86
2020-09-11 03:00:00 17.7 2 Sur 7 Sudoeste 0 1017.4 -- 86
2020-09-11 02:00:00 17.6 4 Sudoeste 9 Sudoeste 0 1017.7 -- 85
2020-09-11 01:00:00 18.1 3 Sur 6 Sudoeste 0 1017.9 -- 84
2020-09-11 00:00:00 18.6 3 Sur 7 Sur 0 1018.2 -- 83
2020-09-10 23:00:00 19 3 Sur 5 Sur 0 1018.4 -- 82
2020-09-10 22:00:00 19.7 4 Sudoeste 6 Sudoeste 0 1018.2 -- 81
2020-09-10 21:00:00 20.6 4 Sudeste 7 Nordeste 0 1017.9 -- 80
2020-09-10 20:00:00 22 4 Este 6 Este 0 1018 -- 75
2020-09-10 19:00:00 23.3 3 Este 6 Noroeste 0 1018.4 -- 71
2020-09-10 18:00:00 23.8 6 Noroeste 8 Noroeste 0 1018.8 -- 70
2020-09-10 17:00:00 23.5 6 Noroeste 10 Noroeste 0 1019.2 -- 69
2020-09-10 16:00:00 23.3 8 Noroeste 10 Noroeste 0 1019.8 -- 69
2020-09-10 15:00:00 22.9 8 Noroeste 12 Norte 0 1020.1 -- 70
2020-09-10 14:00:00 22.4 6 Noroeste 10 Noroeste 0 1020.5 -- 69
2020-09-10 13:00:00 22.1 6 Noroeste 9 Noroeste 0 1020.8 -- 69
2020-09-10 12:00:00 22 2 Norte 6 Norte 0 1021.3 -- 66
2020-09-10 11:00:00 21.5 3 Nordeste 6 Nordeste 0 1021.1 -- 73
2020-09-10 10:00:00 18.6 2 Noroeste 10 Sudoeste 0 1021.1 -- 82
2020-09-10 09:00:00 17 8 Sudoeste 12 Sudoeste 0 1020.6 -- 85
2020-09-10 08:00:00 16.1 6 Sudoeste 12 Sudoeste 0 1020.1 -- 86
2020-09-10 07:00:00 16.3 4 Sudoeste 11 Sudoeste 0 1020 -- 86
2020-09-10 06:00:00 16.7 5 Sudoeste 12 Sudoeste 0 1020.4 -- 86
2020-09-10 05:00:00 16.5 7 Sudoeste 12 Sudoeste 0 1020.9 -- 86
2020-09-10 04:00:00 16.9 2 Sur 8 Sudoeste 0 1021.3 -- 85
2020-09-10 03:00:00 17.2 3 Sudoeste 16 Sudoeste 0 1021.7 -- 84
2020-09-10 02:00:00 17.7 0 Calma 12 Sudoeste 0 1021.9 -- 82
2020-09-10 01:00:00 17.6 8 Sudoeste 13 Sudoeste 0 1022.4 -- 82
2020-09-10 00:00:00 17.6 10 Sudoeste 14 Sudoeste 0 1022.5 -- 80
2020-09-09 23:00:00 18.1 10 Sudoeste 13 Sudoeste 0 1022.5 -- 80
2020-09-09 22:00:00 19.6 3 Sudoeste 9 Sudoeste 0 1022.1 -- 80
2020-09-09 21:00:00 20.3 3 Este 11 Sudeste 0 1021.1 -- 76
2020-09-09 20:00:00 21.8 6 Este 8 Este 0 1021 -- 71
2020-09-09 19:00:00 24.5 3 Nordeste 5 Nordeste 0 1021.1 -- 64
2020-09-09 18:00:00 23.9 4 Noroeste 7 Noroeste 0 1021.1 -- 65
2020-09-09 17:00:00 23.6 4 Nordeste 12 Oeste 0 1021.3 -- 65
2020-09-09 16:00:00 22.7 11 Noroeste 15 Noroeste 0 1021.8 -- 66
2020-09-09 15:00:00 23.1 7 Noroeste 14 Noroeste 0 1021.9 -- 64
2020-09-09 14:00:00 22.2 7 Noroeste 12 Noroeste 0 1021.9 -- 67
2020-09-09 13:00:00 22.5 6 Noroeste 13 Noroeste 0 1022.2 -- 63
2020-09-09 12:00:00 21.9 8 Noroeste 10 Noroeste 0 1022.1 -- 62
2020-09-09 11:00:00 21.3 3 Noroeste 8 Noroeste 0 1021.8 -- 64
2020-09-09 10:00:00 18.7 3 Oeste 10 Sudoeste 0 1021.5 -- 73
2020-09-09 09:00:00 15.6 10 Sudoeste 14 Sudoeste 0 1021.4 -- 79
2020-09-09 08:00:00 14.4 12 Sudoeste 14 Sudoeste 0 1021.1 -- 82
2020-09-09 07:00:00 14.6 10 Sudoeste 13 Sudoeste 0 1020.7 -- 80
2020-09-09 06:00:00 14.5 8 Sudoeste 12 Sudoeste 0 1020.4 -- 79
2020-09-09 05:00:00 14.9 10 Sudoeste 13 Sudoeste 0 1020.6 -- 79
2020-09-09 04:00:00 15.2 10 Sudoeste 13 Sudoeste 0 1020.7 -- 78
2020-09-09 03:00:00 15.3 10 Sudoeste 12 Sudoeste 0 1020.9 -- 76
2020-09-09 02:00:00 16 9 Sudoeste 14 Sudoeste 0 1021.1 -- 74
2020-09-09 01:00:00 16.2 8 Sudoeste 12 Sudoeste 0 1021.4 -- 74
2020-09-09 00:00:00 17.9 3 Sudeste 13 Sudeste 0 1021.8 -- 68
2020-09-08 23:00:00 18.8 8 Sudeste 15 Este 0 1022.1 -- 66
2020-09-08 22:00:00 19.6 11 Este 25 Este 0 1022 -- 66
2020-09-08 21:00:00 20.1 17 Este 31 Este 0 1021.6 -- 65
2020-09-08 20:00:00 21 22 Este 34 Este 0 1021.4 -- 62
2020-09-08 19:00:00 22.3 24 Este 38 Este 0 1021.3 -- 58
2020-09-08 18:00:00 22.4 28 Este 39 Este 0 1021.3 -- 59
2020-09-08 17:00:00 22.9 26 Este 40 Este 0 1021.7 -- 58
2020-09-08 16:00:00 22.9 28 Este 38 Este 0 1022.3 -- 59
2020-09-08 15:00:00 22.6 27 Este 40 Este 0 1022.9 -- 61
2020-09-08 14:00:00 22.2 23 Este 36 Este 0 1023.2 -- 64
2020-09-08 13:00:00 21.9 28 Este 39 Este 0 1023.5 -- 63
2020-09-08 12:00:00 21.7 21 Este 34 Este 0 1023.9 -- 64
2020-09-08 11:00:00 20.9 22 Este 31 Este 0 1024 -- 60
2020-09-08 10:00:00 19.6 17 Este 33 Este 0 1024 -- 63
2020-09-08 09:00:00 18.3 22 Este 31 Este 0 1024 -- 61
2020-09-08 08:00:00 17.8 24 Este 36 Este 0 1023.4 -- 59
2020-09-08 07:00:00 17.7 23 Este 32 Este 0 1023.2 -- 57
2020-09-08 06:00:00 17.3 13 Sudeste 30 Este 0 1023.2 -- 56
2020-09-08 05:00:00 17.2 15 Sudeste 29 Este 0 1023.5 -- 57
2020-09-08 04:00:00 17.2 17 Este 33 Este 0 1023.9 -- 62
2020-09-08 03:00:00 17.9 16 Este 29 Este 0 1024.2 -- 59
2020-09-08 02:00:00 18 19 Este 30 Este 0 1024.5 -- 61
2020-09-08 01:00:00 17.9 14 Sudeste 24 Sudeste 0 1024.9 -- 64
2020-09-08 00:00:00 17.9 14 Sudeste 23 Este 0 1025.3 -- 66
2020-09-07 23:00:00 18 11 Sudeste 19 Sudeste 0 1025.5 -- 67
2020-09-07 22:00:00 18 12 Sudeste 19 Sudeste 0 1025.2 -- 68
2020-09-07 21:00:00 19.1 10 Sudeste 28 Este 0 1024.8 -- 65
2020-09-07 20:00:00 20.7 20 Este 29 Este 0 1024.3 -- 62
2020-09-07 19:00:00 22 17 Este 25 Este 0 1024.4 -- 58
2020-09-07 18:00:00 23 18 Este 24 Este 0 1024.1 -- 55
2020-09-07 17:00:00 23.8 13 Este 21 Este 0 1024.2 -- 55
2020-09-07 16:00:00 24.2 12 Este 20 Este 0 1024.2 -- 53
2020-09-07 15:00:00 24.4 13 Este 19 Nordeste 0 1024.9 -- 53
2020-09-07 14:00:00 23.7 13 Nordeste 17 Este 0 1024.6 -- 56
2020-09-07 13:00:00 22.5 10 Nordeste 14 Este 0 1024.6 -- 56
2020-09-07 12:00:00 20.8 9 Este 14 Este 0 1024.5 -- 62
2020-09-07 11:00:00 19.9 6 Sudeste 8 Este 0 1024.3 -- 66
2020-09-07 10:00:00 18.4 4 Sudeste 6 Sudeste 0 1023.9 -- 76
2020-09-07 09:00:00 16.5 3 Sur 8 Sur 0 1023.4 -- 77
2020-09-07 08:00:00 15.8 6 Sur 10 Sur 0 1022.8 -- 76
2020-09-07 07:00:00 16.1 6 Sur 11 Sur 0 1022.5 -- 78
2020-09-07 06:00:00 16.3 8 Sur 13 Sudoeste 0 1022.4 -- 80
2020-09-07 05:00:00 16.8 6 Sudoeste 9 Sur 0.2 1022.5 -- 80
2020-09-07 04:00:00 16.9 8 Sur 14 Sudeste 0.6 1022.7 -- 77
2020-09-07 03:00:00 17.3 8 Sudeste 14 Sur 0 1022.9 -- 75
2020-09-07 02:00:00 17.6 6 Sudeste 12 Sudeste 0 1023 -- 74
2020-09-07 01:00:00 17.7 4 Sur 10 Sudeste 0 1023.1 -- 75
2020-09-07 00:00:00 18.2 12 Este 22 Nordeste 0 1023 -- 75
2020-09-06 23:00:00 18.1 6 Sur 10 Sudoeste 0 1023.1 -- 76
2020-09-06 22:00:00 18.5 4 Oeste 11 Sudoeste 0 1022.7 -- 74
2020-09-06 21:00:00 19.2 5 Sudoeste 8 Noroeste 0 1022.1 -- 69
2020-09-06 20:00:00 19.5 0 Calma 5 Sur 0 1022.3 -- 65
2020-09-06 19:00:00 20.5 2 Sudeste 6 Este 0 1022.5 -- 60
2020-09-06 18:00:00 21.9 3 Este 10 Este 0 1022.3 -- 56
2020-09-06 17:00:00 21.5 4 Este 13 Nordeste 0 1022.4 -- 57
2020-09-06 16:00:00 20.9 6 Nordeste 10 Nordeste 0 1022.6 -- 58
2020-09-06 15:00:00 21.1 6 Este 11 Este 0 1022.7 -- 61
2020-09-06 14:00:00 20.9 4 Este 12 Sudeste 0 1022.7 -- 64
2020-09-06 13:00:00 20.4 8 Sudeste 13 Este 0 1023.1 -- 64
2020-09-06 12:00:00 21 6 Sudeste 14 Sur 0 1023.1 -- 68
2020-09-06 11:00:00 17.7 6 Sur 17 Sudeste 0 1023.2 -- 81
2020-09-06 10:00:00 16.5 7 Sur 11 Sur 0 1022.8 -- 86
2020-09-06 09:00:00 16.1 5 Sur 13 Sudeste 0.2 1022.8 -- 87
2020-09-06 08:00:00 16.2 6 Sudeste 12 Sur 0 1022.6 -- 86
2020-09-06 07:00:00 16 7 Sur 16 Sur 0 1022.3 -- 88
2020-09-06 06:00:00 16.1 6 Sur 13 Sur 0 1022.6 -- 89
2020-09-06 05:00:00 16.5 6 Sudeste 18 Este 0.2 1022.8 -- 89
2020-09-06 04:00:00 16.9 9 Este 21 Este 0.8 1023.2 -- 89
2020-09-06 03:00:00 17.3 14 Este 20 Este 1 1023.3 -- 89
2020-09-06 02:00:00 17.5 15 Este 27 Nordeste 3.8 1023.5 -- 89
2020-09-06 01:00:00 17.7 8 Norte 15 Sudeste 2.6 1023.6 -- 89
2020-09-06 00:00:00 17.9 13 Este 30 Este 1.8 1023.6 -- 89
2020-09-05 23:00:00 18.2 21 Este 27 Este 3.4 1023.8 -- 88
2020-09-05 22:00:00 18.3 8 Este 16 Este 0 1023.4 -- 86
2020-09-05 21:00:00 18.3 7 Sudeste 12 Sudeste 0.2 1023 -- 87
2020-09-05 20:00:00 18.5 7 Sudeste 13 Sudeste 0 1022.9 -- 86
2020-09-05 19:00:00 18.8 8 Este 19 Este 0.6 1022.7 -- 85
2020-09-05 18:00:00 19.4 15 Nordeste 25 Nordeste 0 1022.8 -- 83
2020-09-05 17:00:00 19.9 21 Nordeste 26 Nordeste 0 1023.3 -- 82
2020-09-05 16:00:00 20.7 8 Noroeste 18 Noroeste 0 1023.6 -- 77
2020-09-05 15:00:00 22.3 2 Nordeste 8 Este 0 1024 -- 69
2020-09-05 14:00:00 21.4 4 Sur 15 Sudeste 0 1023.9 -- 71
2020-09-05 13:00:00 19.8 6 Sur 14 Sudoeste 0 1024.2 -- 84
2020-09-05 12:00:00 19 5 Sur 10 Sur 1 1024.3 -- 86
2020-09-05 11:00:00 19.1 5 Sudoeste 12 Sur 0 1023.7 -- 85
2020-09-05 10:00:00 19 9 Sur 13 Sur 0.8 1023.5 -- 87
2020-09-05 09:00:00 19.2 7 Sur 10 Sudoeste 0.4 1023.3 -- 86
2020-09-05 08:00:00 19.7 3 Sudoeste 12 Norte 0.4 1022.8 -- 85
2020-09-05 07:00:00 20 3 Noroeste 12 Sudoeste 1.8 1022.5 -- 85
2020-09-05 06:00:00 20.6 5 Sudoeste 17 Oeste 0 1022.2 -- 82
2020-09-05 05:00:00 20.9 11 Noroeste 18 Noroeste 0 1022 -- 81
2020-09-05 04:00:00 21.4 8 Oeste 17 Oeste 0 1021.8 -- 76
2020-09-05 03:00:00 21.4 9 Oeste 17 Oeste 0 1021.7 -- 74
2020-09-05 02:00:00 21.5 12 Oeste 23 Oeste 0 1021.7 -- 74
2020-09-05 01:00:00 21.4 12 Oeste 27 Oeste 0 1021.7 -- 76
2020-09-05 00:00:00 21.6 14 Oeste 22 Oeste 0 1021.4 -- 79
2020-09-04 23:00:00 21.4 9 Oeste 19 Oeste 0 1021.1 -- 82
2020-09-04 22:00:00 21.7 12 Oeste 23 Oeste 0 1020.4 -- 82
2020-09-04 21:00:00 22.1 7 Oeste 15 Noroeste 0 1019.5 -- 82
2020-09-04 20:00:00 23.9 4 Noroeste 8 Noroeste 0 1018.6 -- 74
2020-09-04 19:00:00 25.4 3 Noroeste 9 Nordeste 0 1018.6 -- 67
2020-09-04 18:00:00 26.5 7 Este 9 Este 0 1018.1 -- 65
2020-09-04 17:00:00 25.4 6 Nordeste 8 Nordeste 0 1018.2 -- 67
2020-09-04 16:00:00 25.2 5 Nordeste 8 Norte 0 1018.5 -- 65
2020-09-04 15:00:00 24.8 5 Nordeste 9 Nordeste 0 1018.8 -- 67
2020-09-04 14:00:00 24.3 6 Nordeste 9 Norte 0 1019.1 -- 68
2020-09-04 13:00:00 24.3 4 Norte 6 Norte 0 1019.4 -- 69
2020-09-04 12:00:00 23.7 4 Norte 7 Nordeste 0 1019.5 -- 71
2020-09-04 11:00:00 22.3 4 Noroeste 6 Noroeste 0 1019.7 -- 74
2020-09-04 10:00:00 20 2 Nordeste 10 Sudoeste 0 1019.4 -- 81
2020-09-04 09:00:00 17.4 9 Sudoeste 11 Sudoeste 0 1019.4 -- 84
2020-09-04 08:00:00 16.8 8 Sudoeste 10 Sudoeste 0 1019.2 -- 84
2020-09-04 07:00:00 16.9 9 Sudoeste 13 Sudoeste 0 1019 -- 83
2020-09-04 06:00:00 16.8 10 Sudoeste 13 Sudoeste 0 1019.1 -- 82
2020-09-04 05:00:00 16.8 8 Sudoeste 11 Sudoeste 0 1019.4 -- 84
2020-09-04 04:00:00 17.7 0 Calma 6 Sudoeste 0 1019.6 -- 84
2020-09-04 03:00:00 18.5 8 Sudoeste 13 Sudoeste 0 1020.1 -- 81
2020-09-04 02:00:00 18 10 Sudoeste 14 Sudoeste 0 1020.5 -- 80
2020-09-04 01:00:00 18.2 10 Sudoeste 14 Sudoeste 0 1020.8 -- 81
2020-09-04 00:00:00 18.7 6 Sudoeste 9 Sudoeste 0 1020.7 -- 80
2020-09-03 23:00:00 19.7 3 Sur 6 Sudoeste 0 1020.4 -- 78
2020-09-03 22:00:00 20.7 3 Sudeste 9 Sudeste 0 1020 -- 77
2020-09-03 21:00:00 21.6 6 Este 19 Este 0 1019.6 -- 73
2020-09-03 20:00:00 22.9 12 Este 18 Este 0 1019.3 -- 68
2020-09-03 19:00:00 24.7 13 Este 17 Este 0 1019.5 -- 62
2020-09-03 18:00:00 25.4 14 Este 19 Este 0 1019.5 -- 59
2020-09-03 17:00:00 26.3 12 Este 16 Este 0 1019.7 -- 53
2020-09-03 16:00:00 26.4 6 Este 12 Este 0 1019.9 -- 50
2020-09-03 15:00:00 25.7 10 Este 13 Nordeste 0 1020.1 -- 53
2020-09-03 14:00:00 25.3 9 Nordeste 15 Nordeste 0 1020.1 -- 58
2020-09-03 13:00:00 24.2 8 Nordeste 11 Nordeste 0 1019.9 -- 60
2020-09-03 12:00:00 22.8 5 Nordeste 8 Nordeste 0 1019.7 -- 63
2020-09-03 11:00:00 21.3 4 Norte 6 Noroeste 0 1019.5 -- 69
2020-09-03 10:00:00 18.8 0 Calma 9 Sudoeste 0 1019.1 -- 77
2020-09-03 09:00:00 16.7 7 Sudoeste 11 Sudoeste 0 1018.8 -- 80
2020-09-03 08:00:00 15.4 6 Sudoeste 13 Sudoeste 0 1018.6 -- 81
2020-09-03 07:00:00 14.9 10 Sudoeste 12 Sudoeste 0 1018.6 -- 82
2020-09-03 06:00:00 15.5 9 Sudoeste 12 Sudoeste 0 1018.8 -- 80
2020-09-03 05:00:00 15.5 10 Sudoeste 13 Sudoeste 0 1018.7 -- 81
2020-09-03 04:00:00 16.2 9 Sudoeste 12 Sudoeste 0 1018.8 -- 80
2020-09-03 03:00:00 16.3 7 Sudoeste 11 Sudoeste 0 1019 -- 80
2020-09-03 02:00:00 16.9 4 Sur 8 Sudoeste 0 1019.1 -- 77
2020-09-03 01:00:00 17.9 4 Sur 9 Sudeste 0 1019.2 -- 74
2020-09-03 00:00:00 18.2 4 Sudeste 12 Sudoeste 0 1019.5 -- 73
2020-09-02 23:00:00 19 4 Sudeste 13 Sudeste 0 1019.5 -- 70
2020-09-02 22:00:00 19.7 8 Sudeste 19 Este 0 1019.2 -- 68
2020-09-02 21:00:00 21 11 Este 28 Este 0 1018.7 -- 64
2020-09-02 20:00:00 22.2 18 Este 28 Este 0 1018.4 -- 63
2020-09-02 19:00:00 23.1 21 Este 27 Este 0 1018.2 -- 61
2020-09-02 18:00:00 23.6 21 Este 25 Este 0 1018.2 -- 58
2020-09-02 17:00:00 24.9 16 Nordeste 20 Este 0 1018.1 -- 59
2020-09-02 16:00:00 25.5 14 Este 19 Nordeste 0 1018.4 -- 55
2020-09-02 15:00:00 24.8 13 Nordeste 19 Nordeste 0 1018.6 -- 56
2020-09-02 14:00:00 24.7 13 Nordeste 17 Nordeste 0 1018.4 -- 57
2020-09-02 13:00:00 23.6 15 Nordeste 22 Nordeste 0 1018.3 -- 61
2020-09-02 12:00:00 23.3 14 Este 18 Este 0 1018.3 -- 59
2020-09-02 11:00:00 22.3 10 Este 15 Este 0 1018.7 -- 63
2020-09-02 10:00:00 18.9 3 Noroeste 6 Noroeste 0 1018 -- 80
2020-09-02 09:00:00 17.1 3 Sudoeste 8 Sudoeste 0 1017.7 -- 83
2020-09-02 08:00:00 16.6 2 Sudeste 9 Sudoeste 0 1017.6 -- 84
2020-09-02 07:00:00 16.7 6 Sudoeste 11 Sudoeste 0 1017.5 -- 84
2020-09-02 06:00:00 17.1 8 Sudoeste 10 Sudoeste 0 1017.2 -- 84
2020-09-02 05:00:00 17.8 6 Sudoeste 9 Sudoeste 0 1017 -- 82
2020-09-02 04:00:00 18.1 5 Sudoeste 10 Sudoeste 0 1016.9 -- 82
2020-09-02 03:00:00 18.3 6 Sudoeste 10 Sudoeste 0 1017.1 -- 80
2020-09-02 02:00:00 18.5 8 Sudoeste 10 Sudoeste 0 1017.4 -- 80
2020-09-02 01:00:00 19.3 4 Sudoeste 9 Sudoeste 0 1017.3 -- 76
2020-09-02 00:00:00 19.7 3 Oeste 12 Norte 0 1017.5 -- 73
2020-09-01 23:00:00 20.1 4 Nordeste 11 Nordeste 0 1017.1 -- 70
2020-09-01 22:00:00 20.2 7 Nordeste 17 Nordeste 0 1016.9 -- 69
2020-09-01 21:00:00 20.4 6 Norte 12 Oeste 0 1016.6 -- 65
2020-09-01 20:00:00 21 4 Noroeste 10 Oeste 0 1016.1 -- 61
2020-09-01 19:00:00 21.7 5 Noroeste 10 Noroeste 0 1015.8 -- 59
2020-09-01 18:00:00 21.8 5 Noroeste 12 Noroeste 0 1015.5 -- 55
2020-09-01 17:00:00 22 6 Noroeste 12 Noroeste 0 1015.4 -- 57
2020-09-01 16:00:00 22.3 4 Norte 14 Norte 0 1015.5 -- 60
2020-09-01 15:00:00 22.4 7 Norte 14 Noroeste 0 1015.8 -- 62
2020-09-01 14:00:00 23 7 Norte 20 Norte 0 1015.6 -- 64
2020-09-01 13:00:00 23.5 6 Norte 19 Oeste 0 1015.6 -- 63
2020-09-01 12:00:00 22.3 13 Noroeste 19 Noroeste 0 1015.7 -- 66
2020-09-01 11:00:00 22.5 7 Noroeste 12 Noroeste 0 1015.4 -- 64
2020-09-01 10:00:00 20 4 Oeste 10 Sudoeste 0 1015.3 -- 71
2020-09-01 09:00:00 17 8 Sudoeste 14 Sudoeste 0 1015 -- 76
2020-09-01 08:00:00 16 11 Sudoeste 15 Sudoeste 0 1014.7 -- 79
2020-09-01 07:00:00 15.9 8 Sudoeste 13 Sudoeste 0 1014.2 -- 78
2020-09-01 06:00:00 15.9 8 Sudoeste 11 Sudoeste 0 1014.3 -- 76
2020-09-01 05:00:00 16.7 9 Sudoeste 14 Sudoeste 0 1014.9 -- 70
2020-09-01 04:00:00 16.2 10 Sudoeste 13 Sudoeste 0 1015 -- 74
2020-09-01 03:00:00 16.5 9 Sudoeste 11 Sudoeste 0 1015.5 -- 73
2020-09-01 02:00:00 17.1 8 Sudoeste 15 Sudoeste 0 1015.7 -- 71
2020-09-01 01:00:00 17.8 6 Sur 15 Sudoeste 0 1015.8 -- 70
2020-09-01 00:00:00 18.1 8 Sudoeste 13 Sudoeste 0 1015.7 -- 68
2020-08-31 23:00:00 18.3 7 Sudoeste 13 Sudoeste 0 1015.8 -- 73
2020-08-31 22:00:00 19.4 4 Sur 10 Sudeste 0 1015.9 -- 69
2020-08-31 21:00:00 19.8 6 Sudeste 20 Este 0 1015.9 -- 68
2020-08-31 20:00:00 20.9 16 Este 26 Este 0 1015.7 -- 65
2020-08-31 19:00:00 21.4 17 Este 23 Este 0 1016.3 -- 60
2020-08-31 18:00:00 21.8 16 Este 22 Este 0 1016.4 -- 58
2020-08-31 17:00:00 22.5 13 Este 16 Este 0 1017.1 -- 47
2020-08-31 16:00:00 24.8 10 Este 17 Este 0 1017.3 -- 46
2020-08-31 15:00:00 22.5 14 Este 20 Este 0 1017.8 -- 48
2020-08-31 14:00:00 23.5 10 Este 15 Este 0 1018.3 -- 49
2020-08-31 13:00:00 21.3 7 Nordeste 10 Nordeste 0 1018.2 -- 51
2020-08-31 12:00:00 20.7 4 Nordeste 12 Norte 0 1018.5 -- 50
2020-08-31 11:00:00 19.3 5 Noroeste 9 Noroeste 0 1018.3 -- 57
2020-08-31 10:00:00 16.4 3 Oeste 10 Sudoeste 0 1018.2 -- 67
2020-08-31 09:00:00 13.5 9 Sudoeste 13 Sudoeste 0 1018.2 -- 72
2020-08-31 08:00:00 12.2 6 Sudoeste 12 Sudoeste 0 1018.4 -- 75
2020-08-31 07:00:00 12.9 4 Sudoeste 11 Sudoeste 0 1018.2 -- 72
2020-08-31 06:00:00 14 6 Sudeste 13 Sudeste 0 1018.2 -- 68
2020-08-31 05:00:00 13.7 5 Sudeste 14 Este 0 1018.8 -- 71
2020-08-31 04:00:00 13.2 4 Sudoeste 8 Sudoeste 0 1019.5 -- 72
2020-08-31 03:00:00 14.7 5 Sudeste 12 Sudeste 0 1020 -- 67
2020-08-31 02:00:00 14.9 5 Sur 13 Sudeste 0 1020.4 -- 68
2020-08-31 01:00:00 15.3 6 Sur 13 Sudeste 0 1020.4 -- 67
2020-08-31 00:00:00 15.3 6 Sudeste 12 Sur 0 1020.3 -- 67
2020-08-30 23:00:00 15.4 6 Sur 11 Sur 0 1020.4 -- 69
2020-08-30 22:00:00 16.4 9 Sur 11 Sur 0 1020 -- 64
2020-08-30 21:00:00 17.7 5 Sudeste 9 Este 0 1019.4 -- 61
2020-08-30 20:00:00 20.4 4 Este 9 Este 0 1019.3 -- 51
2020-08-30 19:00:00 21.1 4 Norte 11 Oeste 0 1019.3 -- 49
2020-08-30 18:00:00 20.7 6 Noroeste 17 Noroeste 0 1019.1 -- 51
2020-08-30 17:00:00 19.4 9 Noroeste 18 Noroeste 0 1019 -- 56
2020-08-30 16:00:00 19.2 10 Noroeste 18 Noroeste 0 1018.9 -- 58
2020-08-30 15:00:00 18.9 7 Noroeste 16 Noroeste 0 1019.1 -- 58
2020-08-30 14:00:00 20.1 13 Noroeste 18 Noroeste 0 1018.8 -- 54
2020-08-30 13:00:00 18.6 10 Sudoeste 19 Sudoeste 0.6 1018.4 -- 67
2020-08-30 12:00:00 15.4 12 Noroeste 29 Noroeste 1.2 1018.6 -- 73
2020-08-30 11:00:00 17.9 10 Sudoeste 20 Sudoeste 0 1017.3 -- 63
2020-08-30 10:00:00 15.5 8 Sudoeste 18 Sudoeste 0 1017 -- 76
2020-08-30 09:00:00 14.7 5 Sudoeste 19 Sudoeste 0 1016.4 -- 77
2020-08-30 08:00:00 14.1 10 Sudoeste 28 Oeste 0.6 1015.9 -- 80
2020-08-30 07:00:00 14.1 8 Sudoeste 16 Sudoeste 0.2 1015.5 -- 82
2020-08-30 06:00:00 14 9 Sudoeste 23 Oeste 1.8 1015.7 -- 83
2020-08-30 05:00:00 14.3 8 Sudoeste 17 Sudoeste 0.4 1015.4 -- 81
2020-08-30 04:00:00 14.3 10 Sudoeste 20 Sudoeste 1 1015.2 -- 79
2020-08-30 03:00:00 14.3 9 Sudoeste 21 Sudoeste 0 1015.3 -- 78
2020-08-30 02:00:00 14 9 Sudoeste 23 Oeste 0.4 1015.8 -- 81
2020-08-30 01:00:00 14.6 8 Sudoeste 17 Sudoeste 0.2 1015.3 -- 80
2020-08-30 00:00:00 14.5 9 Sudoeste 21 Sudoeste 0.6 1015.3 -- 80
2020-08-29 23:00:00 14.3 13 Sudoeste 27 Oeste 10.4 1015.6 -- 82
2020-08-29 22:00:00 16.7 10 Norte 22 Nordeste 2.2 1015.1 -- 74
2020-08-29 21:00:00 17.9 8 Sudoeste 27 Oeste 0 1014.1 -- 62
2020-08-29 20:00:00 18.6 16 Noroeste 28 Oeste 0 1014 -- 58
2020-08-29 19:00:00 18.7 -- -- -- -- 0 1013.8 -- 58
2020-08-29 18:00:00 18.8 -- -- -- -- 0 1013.2 -- 60
2020-08-29 17:00:00 18.9 -- -- -- -- 0 1012.3 -- 60
2020-08-29 16:00:00 18 -- -- -- -- 1 1011.7 -- 74
2020-08-29 15:00:00 17.2 -- -- -- -- 0.4 1011.4 -- 72
2020-08-29 14:00:00 19.6 18 Oeste 45 Oeste 0 1011 -- 65
2020-08-29 13:00:00 18 14 Oeste 28 Oeste 1.2 1010.8 -- 79
2020-08-29 12:00:00 16 8 Sudoeste -- -- 8.4 1010.1 -- 81
2020-08-29 11:00:00 16.4 14 Sudoeste 32 Oeste 2.4 1009.7 -- 77
2020-08-29 10:00:00 16 12 Oeste 29 Sudoeste 2.8 1009.4 -- 78
2020-08-29 09:00:00 15.9 10 Oeste 30 Oeste 1 1009.1 -- 77
2020-08-29 08:00:00 16.1 12 Oeste -- -- 0.2 1008.9 -- 74
2020-08-29 07:00:00 16 8 Sudoeste 28 Sudoeste 0 1008.8 -- 73
2020-08-29 06:00:00 15.9 10 Oeste 23 Oeste 0.4 1009 -- 76
2020-08-29 05:00:00 16.2 9 Oeste 27 Oeste 0.8 1009.1 -- 72
2020-08-29 04:00:00 17.2 13 Oeste 32 Sudoeste 0 1009.5 -- 63
2020-08-29 03:00:00 16.7 13 Oeste 31 Oeste 0.2 1010.1 -- 66
2020-08-29 02:00:00 16.7 14 Oeste 38 Oeste 0.2 1010.3 -- 68
2020-08-29 01:00:00 17.5 15 Oeste 25 Oeste 0 1010.5 -- 63
2020-08-29 00:00:00 18.2 10 Oeste 24 Sudoeste 0 1010.4 -- 57
2020-08-28 23:00:00 18.2 9 Oeste 22 Oeste 0 1010.9 -- 58
2020-08-28 22:00:00 18.7 13 Oeste 31 Oeste 0 1011 -- 55
2020-08-28 21:00:00 19.2 14 Oeste 32 Oeste 0 1010.9 -- 56
2020-08-28 20:00:00 20.3 22 Oeste 44 Oeste 0 1010.9 -- 54
2020-08-28 19:00:00 21.5 27 Oeste 45 Oeste 0 1011 -- 50
2020-08-28 18:00:00 21.9 27 Oeste 50 Oeste 0 1010.9 -- 51
2020-08-28 17:00:00 21.4 32 Oeste 52 Oeste 0 1011 -- 51
2020-08-28 16:00:00 21.7 33 Oeste 55 Oeste 0 1011.2 -- 53
2020-08-28 15:00:00 22.3 28 Oeste 56 Oeste 0 1011.5 -- 46
2020-08-28 14:00:00 21.9 32 Oeste 52 Oeste 0 1011.8 -- 60
2020-08-28 13:00:00 21.2 24 Oeste 44 Noroeste 0 1012.1 -- 54
2020-08-28 12:00:00 21.1 18 Oeste 36 Oeste 0 1012.6 -- 54
2020-08-28 11:00:00 20.5 12 Oeste 27 Sudoeste 0.2 1012.7 -- 59
2020-08-28 10:00:00 19.5 9 Oeste 26 Sudoeste 0 1013 -- 67
2020-08-28 09:00:00 18.5 8 Sudoeste 21 Sudoeste 0 1013 -- 73
2020-08-28 08:00:00 18.4 7 Sudoeste 24 Sudoeste 0 1013.2 -- 74
2020-08-28 07:00:00 17.9 9 Sudoeste 21 Sudoeste 0 1013.1 -- 79
2020-08-28 06:00:00 17.9 6 Sudoeste 23 Sudoeste 0 1013.5 -- 84
2020-08-28 05:00:00 18.3 13 Oeste 30 Oeste 0.4 1013.8 -- 87
2020-08-28 04:00:00 18.8 16 Oeste 35 Oeste 0.6 1014 -- 87
2020-08-28 03:00:00 19.3 11 Oeste 31 Oeste 0 1014.5 -- 87
2020-08-28 02:00:00 19.7 21 Oeste 36 Noroeste 1.4 1015 -- 87
2020-08-28 01:00:00 21.2 16 Oeste 34 Oeste 0 1015 -- 84
2020-08-28 00:00:00 22.6 6 Oeste 13 Oeste 0 1015 -- 72
2020-08-27 23:00:00 22.5 5 Oeste 11 Oeste 0 1015.6 -- 75
2020-08-27 22:00:00 22.8 4 Sudoeste 7 Sudoeste 0 1015.7 -- 76
2020-08-27 21:00:00 23 2 Oeste 9 Noroeste 0 1015.7 -- 74
2020-08-27 20:00:00 23.1 8 Noroeste 18 Noroeste 0 1015.9 -- 74
2020-08-27 19:00:00 23.4 12 Noroeste 14 Noroeste 0 1016.3 -- 70
2020-08-27 18:00:00 23.5 7 Noroeste 11 Noroeste 0 1016.6 -- 72
2020-08-27 17:00:00 24.2 8 Noroeste 14 Noroeste 0 1016.9 -- 68
2020-08-27 16:00:00 24.6 9 Noroeste 21 Oeste 0 1017.2 -- 68
2020-08-27 15:00:00 23.7 13 Noroeste 19 Noroeste 0 1017.7 -- 74
2020-08-27 14:00:00 23.1 13 Noroeste 23 Noroeste 0 1018.1 -- 78
2020-08-27 13:00:00 23.6 16 Noroeste 21 Noroeste 0 1018.2 -- 77
2020-08-27 12:00:00 22.9 9 Noroeste 21 Noroeste 0 1018.1 -- 80
2020-08-27 11:00:00 23.5 7 Noroeste 10 Noroeste 0 1017.7 -- 76
2020-08-27 10:00:00 22.1 4 Norte 8 Oeste 0 1017.1 -- 83
2020-08-27 09:00:00 21.4 4 Oeste 11 Sudoeste 0 1017.7 -- 86
2020-08-27 08:00:00 19.9 6 Sudoeste 12 Sudoeste 0 1018 -- 87
2020-08-27 07:00:00 20.3 4 Oeste 9 Noroeste 0 1017.2 -- 86
2020-08-27 06:00:00 20.5 2 Oeste 7 Sur 0 1017.3 -- 85
2020-08-27 05:00:00 21.1 2 Noroeste 5 Sur 0 1017.8 -- 85
2020-08-27 04:00:00 21.1 4 Sudoeste 7 Sudoeste 0 1018.2 -- 84
2020-08-27 03:00:00 21.2 3 Sudoeste 9 Sudoeste 0 1018.5 -- 84
2020-08-27 02:00:00 21.7 2 Sur 10 Este 0 1018.6 -- 83
2020-08-27 01:00:00 21.9 9 Este 15 Este 0 1018.8 -- 85
2020-08-27 00:00:00 22 12 Este 16 Este 0 1019.4 -- 85
2020-08-26 23:00:00 22 12 Este 18 Este 0 1019.8 -- 84
2020-08-26 22:00:00 22.1 12 Este 19 Este 0 1019.7 -- 84
2020-08-26 21:00:00 22.2 13 Este 18 Este 0 1019.2 -- 83
2020-08-26 20:00:00 22.4 8 Este 16 Este 0 1019.3 -- 82
2020-08-26 19:00:00 22.6 14 Este 20 Este 0 1019.3 -- 80
2020-08-26 18:00:00 22.9 13 Este 21 Este 0 1019.6 -- 78
2020-08-26 17:00:00 24 17 Nordeste 21 Nordeste 0 1019.9 -- 74
2020-08-26 16:00:00 24.6 15 Nordeste 20 Nordeste 0 1019.9 -- 72
2020-08-26 15:00:00 24.7 18 Nordeste 23 Nordeste 0 1019.7 -- 72
2020-08-26 14:00:00 25.4 16 Nordeste 21 Nordeste 0 1019.7 -- 70
2020-08-26 13:00:00 27.4 9 Nordeste 13 Nordeste 0 1019.8 -- 65
2020-08-26 12:00:00 26 10 Nordeste 12 Nordeste 0 1019.6 -- 71
2020-08-26 11:00:00 24 6 Nordeste 9 Nordeste 0 1019.3 -- 78
2020-08-26 10:00:00 22.9 3 Este 9 Este 0 1018.9 -- 82
2020-08-26 09:00:00 22 4 Nordeste 5 Sur 0 1018.6 -- 85
2020-08-26 08:00:00 21.5 4 Sudoeste 6 Sudoeste 0 1018.5 -- 86
2020-08-26 07:00:00 21.5 2 Oeste 7 Sur 0 1018.1 -- 87
2020-08-26 06:00:00 21.5 0 Calma 8 Noroeste 0 1017.9 -- 87
2020-08-26 05:00:00 21.3 4 Noroeste 9 Noroeste 0 1017.9 -- 87
2020-08-26 04:00:00 21.4 3 Sudoeste 8 Este 0 1017.6 -- 86
2020-08-26 03:00:00 21.5 5 Este 7 Sudeste 0 1017.9 -- 87
2020-08-26 02:00:00 21.4 0 Calma 5 Noroeste 0 1018.3 -- 87
2020-08-26 01:00:00 21.4 0 Calma 12 Noroeste 0 1018.5 -- 86
2020-08-26 00:00:00 21.6 8 Noroeste 13 Noroeste 0 1018.6 -- 84
2020-08-25 23:00:00 22 8 Noroeste 14 Noroeste 0 1018.5 -- 81
2020-08-25 22:00:00 23 9 Noroeste 12 Noroeste 0 1018 -- 76
2020-08-25 21:00:00 23.5 6 Noroeste 15 Oeste 0 1017.3 -- 69
2020-08-25 20:00:00 24.9 12 Oeste 21 Noroeste 0 1016.8 -- 61
2020-08-25 19:00:00 25.8 12 Noroeste 21 Noroeste 0 1016.5 -- 57
2020-08-25 18:00:00 26.6 8 Noroeste 14 Noroeste 0 1016.2 -- 54
2020-08-25 17:00:00 26.8 3 Nordeste 8 Nordeste 0 1015.7 -- 51
2020-08-25 16:00:00 25.9 5 Nordeste 8 Nordeste 0 1015.5 -- 59
2020-08-25 15:00:00 25 4 Norte 10 Noroeste 0 1015.4 -- 62
2020-08-25 14:00:00 24.9 0 Calma -- -- -- 1015.3 -- 62
2020-08-25 13:00:00 24.5 -- -- -- -- -- 1015.1 -- 63
2020-08-25 12:00:00 24.1 -- -- -- -- 0 1014.9 -- 58
2020-08-25 11:00:00 23.9 -- -- -- -- -- 1014.2 -- 57
2020-08-25 10:00:00 22.3 5 Oeste 11 Sudoeste 0 1013.7 -- 68
2020-08-25 09:00:00 20.7 5 Sudoeste 14 Oeste 0 1013.1 -- 73
2020-08-25 08:00:00 19.3 8 Sudoeste 13 Oeste 0 1012.8 -- 77
2020-08-25 07:00:00 18.3 8 Sudoeste 15 Sudoeste 0 1012.6 -- 80
2020-08-25 06:00:00 17.9 9 Oeste 14 Oeste 0 1012 -- 81
2020-08-25 05:00:00 18.2 6 Oeste 17 Sudoeste 0 1011.6 -- 81
2020-08-25 04:00:00 17.8 8 Sudoeste 13 Sudoeste 0 1011.6 -- 81
2020-08-25 03:00:00 17.9 6 Oeste 13 Oeste 0 1011.8 -- 81
2020-08-25 02:00:00 18.4 8 Sudoeste 12 Sudoeste 0 1012.2 -- 80
2020-08-25 01:00:00 18.4 9 Sudoeste 13 Sudoeste 0 1012.7 -- 80
2020-08-25 00:00:00 19 9 Sudoeste 20 Oeste 0 1013.3 -- 78
2020-08-24 23:00:00 19.5 8 Sudoeste 13 Sudoeste 0 1014 -- 77
2020-08-24 22:00:00 20.7 4 Sudeste 23 Sudeste 0 1014 -- 72
2020-08-24 21:00:00 21.7 17 Sudeste 27 Sudeste 0 1014.3 -- 71
2020-08-24 20:00:00 22.8 16 Este 26 Este 0 1014.6 -- 65
2020-08-24 19:00:00 23.8 18 Este 32 Este 0 1015.1 -- 64
2020-08-24 18:00:00 24 18 Este 34 Este 0 1015.5 -- 60
2020-08-24 17:00:00 24.7 18 Este 34 Este 0 1016 -- 58
2020-08-24 16:00:00 25.4 22 Este 36 Este 0 1016.9 -- 56
2020-08-24 15:00:00 25.6 19 Este 30 Este 0 1017.8 -- 55
2020-08-24 14:00:00 25 22 Este 30 Este 0 1018.2 -- 57
2020-08-24 13:00:00 24.4 23 Este 35 Este 0 1019.1 -- 59
2020-08-24 12:00:00 23.9 27 Este 39 Este 0 1019.1 -- 60
2020-08-24 11:00:00 23 21 Este 29 Este 0 1019.6 -- 64
2020-08-24 10:00:00 21.1 12 Este 19 Este 0 1019.7 -- 70
2020-08-24 09:00:00 19.2 8 Sudoeste 12 Sudoeste 0 1020 -- 76
2020-08-24 08:00:00 17.9 4 Sudoeste 13 Sudoeste 0 1019.7 -- 78
2020-08-24 07:00:00 18.1 9 Sudoeste 13 Sudoeste 0 1020.3 -- 79
2020-08-24 06:00:00 18.9 2 Sudoeste 12 Sudoeste 0 1020 -- 76
2020-08-24 05:00:00 19.2 3 Sudoeste 9 Sudoeste 0 1020.4 -- 75
2020-08-24 04:00:00 19.4 3 Sur 7 Sur 0 1020.4 -- 75
2020-08-24 03:00:00 19.8 5 Sudeste 10 Sudeste 0 1020.6 -- 74
2020-08-24 02:00:00 19.8 6 Sur 10 Sur 0 1021.4 -- 73
2020-08-24 01:00:00 19.9 4 Sur 9 Sur 0 1021.7 -- 74
2020-08-24 00:00:00 20 3 Sur 10 Sudeste 0 1022 -- 72
2020-08-23 23:00:00 20.1 7 Sur 12 Sur 0 1022 -- 72
2020-08-23 22:00:00 21 5 Sur 15 Este 0 1022.3 -- 69
2020-08-23 21:00:00 21.3 10 Este 18 Este 0 1022 -- 68
2020-08-23 20:00:00 21.6 12 Este 22 Este 0 1022 -- 68
2020-08-23 19:00:00 22 9 Este 16 Este 0 1022.2 -- 66
2020-08-23 18:00:00 22.4 12 Este 18 Nordeste 0 1022.3 -- 65
2020-08-23 17:00:00 23.2 11 Este 17 Este 0 1022.5 -- 64
2020-08-23 16:00:00 24.2 8 Este 15 Este 0 1022.9 -- 63
2020-08-23 15:00:00 23.8 8 Nordeste 15 Nordeste 0 1023.3 -- 64
2020-08-23 14:00:00 22.5 9 Nordeste 13 Nordeste 0 1023.4 -- 68
2020-08-23 13:00:00 23.4 6 Nordeste 12 Nordeste 0 1023.9 -- 65
2020-08-23 12:00:00 22.6 4 Nordeste 11 Nordeste 0 1024.1 -- 64
2020-08-23 11:00:00 22.4 3 Nordeste 6 Norte 0 1024.1 -- 66
2020-08-23 10:00:00 20.3 0 Calma 11 Sudoeste 0 1024 -- 72
2020-08-23 09:00:00 17.7 8 Sudoeste 15 Sudoeste 0 1023.9 -- 76
2020-08-23 08:00:00 17.4 2 Oeste 11 Sudoeste 0 1023.3 -- 77
2020-08-23 07:00:00 17.1 8 Sudoeste 14 Sudoeste 0 1023.2 -- 77
2020-08-23 06:00:00 16.5 9 Oeste 14 Sudoeste 0 1023.3 -- 81
2020-08-23 05:00:00 16.7 6 Sudoeste 17 Oeste 0 1023.5 -- 82
2020-08-23 04:00:00 17.1 6 Sudoeste 11 Oeste 0 1023.8 -- 82
2020-08-23 03:00:00 17.7 5 Sudoeste 12 Sudoeste 0 1023.9 -- 81
2020-08-23 02:00:00 18.3 7 Sudoeste 13 Sudoeste 0 1024.2 -- 79
2020-08-23 01:00:00 18.6 9 Sudoeste 13 Sudoeste 0 1024.4 -- 79
2020-08-23 00:00:00 19.6 5 Sudoeste 10 Sudoeste 0 1024.6 -- 76
2020-08-22 23:00:00 20.2 5 Sudoeste 8 Sudoeste 0 1024.7 -- 75
2020-08-22 22:00:00 20.4 5 Sudoeste 8 Sudoeste 0 1024.4 -- 72
2020-08-22 21:00:00 20.9 0 Calma 6 Sur 0 1024 -- 68
2020-08-22 20:00:00 21.2 0 Calma 12 Oeste 0 1023.9 -- 64
2020-08-22 19:00:00 21.5 3 Norte 12 Noroeste 0 1023.8 -- 65
2020-08-22 18:00:00 22 5 Norte 10 Norte 0 1023.8 -- 62
2020-08-22 17:00:00 22.7 4 Norte 13 Norte 0 1023.6 -- 58
2020-08-22 16:00:00 23 6 Norte 13 Noroeste 0 1023.9 -- 58
2020-08-22 15:00:00 22.7 7 Norte 14 Norte 0 1024 -- 60
2020-08-22 14:00:00 23 3 Noroeste 10 Oeste 0 1023.9 -- 61
2020-08-22 13:00:00 21.4 6 Norte 16 Noroeste 0 1023.5 -- 68
2020-08-22 12:00:00 21.5 8 Noroeste 17 Noroeste 0 1023.3 -- 72
2020-08-22 11:00:00 21.8 3 Oeste 8 Sudoeste 0 1022.9 -- 78
2020-08-22 10:00:00 19.9 0 Calma 8 Sur 0.4 1022.6 -- 84
2020-08-22 09:00:00 19.1 3 Sur 8 Sudoeste 0 1022.4 -- 85
2020-08-22 08:00:00 19.1 4 Sur 9 Sudoeste 0 1021.8 -- 85
2020-08-22 07:00:00 18.8 5 Sur 12 Sur 0 1021.1 -- 85
2020-08-22 06:00:00 18.8 5 Sudoeste 10 Sur 0.6 1020.9 -- 85
2020-08-22 05:00:00 19.4 6 Oeste 15 Sudoeste 0.2 1020.7 -- 82
2020-08-22 04:00:00 19.2 5 Sudoeste 13 Sur 0 1020.3 -- 83
2020-08-22 03:00:00 19.1 8 Sur 14 Sudoeste 0.4 1020.2 -- 84
2020-08-22 02:00:00 19.7 8 Noroeste 18 Noroeste 0 1020.1 -- 81
2020-08-22 01:00:00 20 5 Sudoeste 10 Sudoeste 0 1019.7 -- 81
2020-08-22 00:00:00 20.1 4 Sudoeste 16 Oeste 0.2 1019.4 -- 79
2020-08-21 23:00:00 21.3 3 Oeste 8 Sudoeste 0 1019.2 -- 74
2020-08-21 22:00:00 21.4 5 Sudoeste 9 Sudoeste 0 1018.3 -- 73
2020-08-21 21:00:00 21.6 4 Sudoeste 12 Sudoeste 0 1017.4 -- 71
2020-08-21 20:00:00 21.8 6 Sudoeste 12 Sudoeste 0 1016.9 -- 73
2020-08-21 19:00:00 21.9 5 Sur 16 Nordeste 0 1016.7 -- 71
2020-08-21 18:00:00 22.1 9 Nordeste 23 Nordeste 0 1016.1 -- 69
2020-08-21 17:00:00 23.2 14 Nordeste 19 Nordeste 0 1015.6 -- 65
2020-08-21 16:00:00 24.2 14 Nordeste 20 Nordeste 0 1015.3 -- 64
2020-08-21 15:00:00 25.4 12 Nordeste 17 Nordeste 0 1014.9 -- 62
2020-08-21 14:00:00 25.9 11 Este 16 Este 0 1014.3 -- 68
2020-08-21 13:00:00 25 12 Nordeste 18 Este 0 1014 -- 71
2020-08-21 12:00:00 24.6 13 Nordeste 19 Este 0 1013.5 -- 71
2020-08-21 11:00:00 24.2 12 Este 15 Este 0 1012.8 -- 78
2020-08-21 10:00:00 21.2 0 Calma 6 Nordeste 0 1012 -- 86
2020-08-21 09:00:00 19.6 4 Sudoeste 23 Oeste 0 1011.3 -- 88
2020-08-21 08:00:00 19 8 Sudoeste 11 Sudoeste 0 1010.3 -- 88
2020-08-21 07:00:00 19.5 3 Sudoeste 10 Sudoeste 0 1009.6 -- 89
2020-08-21 06:00:00 20 5 Sur 9 Sur 0 1009.2 -- 88
2020-08-21 05:00:00 20.2 3 Sudeste 7 Sur 0 1009 -- 89
2020-08-21 04:00:00 19.9 2 Sudoeste 6 Sur 0 1008.9 -- 89
2020-08-21 03:00:00 19.7 3 Sudoeste 11 Oeste 0 1008.4 -- 88
2020-08-21 02:00:00 20.2 3 Noroeste 9 Oeste 0 1008.2 -- 88
2020-08-21 01:00:00 20.3 4 Oeste 11 Sudoeste 0 1007.8 -- 88
2020-08-21 00:00:00 20.5 2 Sur 10 Sudoeste 0 1007.1 -- 88